This is the latest recevied weather packets stored in our database for station/object KF6FPU-15. If no packets are shown the sender has not sent any weather packets the latest 10 day(s).
| Time | Temp. | Humidity | Pressure | Rain* | Wind** | Luminosity | Snow |
|---|---|---|---|---|---|---|---|
| 1778190105 | 42.78° C | 17% | 1016.2 hPa | - | - | - | - |
| 1778189505 | 42.22° C | 17% | 1016.5 hPa | - | - | - | - |
| 1778188905 | 42.78° C | 17% | 1016.5 hPa | - | - | - | - |
| 1778188305 | 42.78° C | 17% | 1016.7 hPa | - | - | - | - |
| 1778187105 | 42.22° C | 17% | 1016.9 hPa | - | - | - | - |
| 1778186505 | 42.22° C | 17% | 1017 hPa | - | - | - | - |
| 1778185905 | 41.67° C | 17% | 1017.1 hPa | - | - | - | - |
| 1778185305 | 41.11° C | 17% | 1017.2 hPa | - | - | - | - |
| 1778184705 | 40.56° C | 18% | 1017.3 hPa | - | - | - | - |
| 1778184105 | 40° C | 18% | 1017.4 hPa | - | - | - | - |
| 1778183505 | 38.89° C | 18% | 1017.6 hPa | - | - | - | - |
| 1778182905 | 38.33° C | 18% | 1017.7 hPa | - | - | - | - |
| 1778182305 | 36.67° C | 18% | 1017.8 hPa | - | - | - | - |
| 1778181705 | 35° C | 19% | 1018 hPa | - | - | - | - |
| 1778180505 | 31.11° C | 19% | 1018.3 hPa | - | - | - | - |
| 1778179905 | 31.11° C | 19% | 1018.4 hPa | - | - | - | - |
| 1778179305 | 30.56° C | 19% | 1018.4 hPa | - | - | - | - |
| 1778178705 | 30° C | 19% | 1018.5 hPa | - | - | - | - |
| 1778178105 | 30.56° C | 19% | 1018.6 hPa | - | - | - | - |
| 1778177505 | 30° C | 19% | 1018.6 hPa | - | - | - | - |
| 1778176905 | 30° C | 19% | 1018.6 hPa | - | - | - | - |
| 1778176305 | 29.44° C | 19% | 1018.7 hPa | - | - | - | - |
| 1778175705 | 29.44° C | 19% | 1018.8 hPa | - | - | - | - |
| 1778175105 | 29.44° C | 19% | 1018.8 hPa | - | - | - | - |
| 1778173905 | 28.89° C | 19% | 1018.8 hPa | - | - | - | - |
* Rain since midnight (hover to see other rain measurements)
** Current wind speed in m/s (hover to see current wind gust speed)